Time;durP1;ratioP1;P1;durP2;ratioP2;P2;SDS_P1;SDS_P2;PMS_P1;PMS_P2;Temp;Humidity;BMP_temperature;BMP_pressure;BME280_temperature;BME280_humidity;BME280_pressure;Samples;Min_cycle;Max_cycle;Signal;HPM_P1;HPM_P2
2023/10/08 00:02:41;;;;;;;4.88;1.65;;;;;;;15.87;62.27;100604.97;10387273;28;20042;-62
2023/10/08 00:07:43;;;;;;;5.78;2.15;;;;;;;15.94;61.85;100612.34;10386783;28;20052;-63
2023/10/08 00:12:47;;;;;;;5.32;2.05;;;;;;;16.01;61.77;100621.53;10388134;28;20045;-62
2023/10/08 00:17:50;;;;;;;5.40;2.00;;;;;;;16.05;61.71;100609.78;10384222;28;20054;-62
2023/10/08 00:22:55;;;;;;;6.63;1.98;;;;;;;16.11;61.49;100604.06;10386762;28;20417;-62
2023/10/08 00:27:57;;;;;;;4.68;2.00;;;;;;;16.15;61.38;100595.00;10385364;28;20042;-62
2023/10/08 00:33:00;;;;;;;6.60;2.15;;;;;;;16.19;61.25;100587.69;10381969;28;20051;-62
2023/10/08 00:38:14;;;;;;;4.63;1.83;;;;;;;16.19;61.15;100588.53;10386193;28;20042;-62
2023/10/08 00:43:35;;;;;;;5.40;1.83;;;;;;;16.21;61.01;100591.91;10386615;28;20107;-62
2023/10/08 00:48:37;;;;;;;6.60;2.10;;;;;;;16.25;61.12;100603.06;10368367;28;20045;-63
2023/10/08 00:53:40;;;;;;;7.05;2.20;;;;;;;16.09;61.31;100608.63;10386867;28;20788;-62
2023/10/08 00:58:46;;;;;;;4.93;1.80;;;;;;;16.14;61.17;100590.66;10381868;28;20041;-62
2023/10/08 01:03:49;;;;;;;4.25;1.95;;;;;;;16.17;61.41;100590.44;10383914;28;20075;-63
2023/10/08 01:08:53;;;;;;;4.15;1.95;;;;;;;16.08;61.45;100577.91;10381381;28;20045;-62
2023/10/08 01:13:58;;;;;;;7.38;2.83;;;;;;;16.03;61.15;100592.38;10382928;28;20541;-62
2023/10/08 01:19:01;;;;;;;4.78;1.83;;;;;;;15.92;61.23;100595.78;10381931;28;20495;-63
2023/10/08 01:24:06;;;;;;;7.60;1.83;;;;;;;15.80;61.38;100604.56;10381502;28;20041;-63
2023/10/08 01:29:12;;;;;;;4.43;2.03;;;;;;;15.78;61.47;100611.75;10382396;28;20080;-63
2023/10/08 01:34:17;;;;;;;4.32;2.00;;;;;;;15.70;61.39;100614.09;10383297;28;20131;-63
2023/10/08 01:39:19;;;;;;;3.60;1.98;;;;;;;15.55;61.71;100620.41;10382598;28;20076;-63
2023/10/08 01:44:22;;;;;;;3.67;1.73;;;;;;;15.44;62.14;100636.09;10384368;28;20421;-63
2023/10/08 01:49:29;;;;;;;4.53;1.73;;;;;;;15.41;62.20;100615.22;10383956;28;20049;-63
2023/10/08 01:54:35;;;;;;;4.53;1.77;;;;;;;15.34;62.20;100614.81;10383466;28;20055;-63
2023/10/08 01:59:38;;;;;;;5.15;2.15;;;;;;;15.29;62.48;100595.81;10378187;28;20493;-63
2023/10/08 02:04:41;;;;;;;5.15;2.08;;;;;;;15.35;62.70;100594.56;10363674;28;20445;-64
2023/10/08 02:09:44;;;;;;;4.80;2.00;;;;;;;15.32;62.68;100594.78;10370745;28;20050;-63
2023/10/08 02:14:46;;;;;;;3.70;1.75;;;;;;;15.33;62.70;100592.03;10384631;28;20056;-63
2023/10/08 02:19:48;;;;;;;2.90;1.55;;;;;;;15.26;62.71;100576.75;10389547;28;20934;-63
2023/10/08 02:24:50;;;;;;;6.10;2.33;;;;;;;15.21;62.74;100578.84;10389931;28;20056;-63
2023/10/08 02:29:52;;;;;;;3.80;1.80;;;;;;;15.23;62.53;100569.91;10382094;28;20056;-63
2023/10/08 02:34:54;;;;;;;3.47;1.70;;;;;;;15.22;62.68;100591.09;10388386;28;20143;-63
2023/10/08 02:39:57;;;;;;;4.57;2.10;;;;;;;15.00;62.97;100607.50;10390155;28;20889;-63
2023/10/08 02:45:02;;;;;;;4.70;1.70;;;;;;;14.74;63.52;100604.91;10388694;28;20056;-63
2023/10/08 02:50:08;;;;;;;6.75;2.25;;;;;;;14.71;63.64;100607.75;10389576;28;20489;-63
2023/10/08 02:55:25;;;;;;;5.30;1.88;;;;;;;14.73;63.66;100621.66;10389697;28;20046;-63
2023/10/08 03:00:29;;;;;;;5.20;1.92;;;;;;;14.56;63.78;100631.50;10388872;28;20057;-63
2023/10/08 03:05:35;;;;;;;5.88;2.00;;;;;;;14.58;63.49;100631.41;10382656;28;20053;-63
2023/10/08 03:10:40;;;;;;;4.10;1.90;;;;;;;14.64;63.30;100633.63;10384810;28;20782;-63
2023/10/08 03:21:04;;;;;;;;;;;;;;;14.61;64.16;100643.53;10375747;28;20037;-63
2023/10/08 03:26:10;;;;;;;5.00;1.83;;;;;;;14.65;63.69;100645.03;10387806;28;19929;-63
2023/10/08 03:31:17;;;;;;;3.85;1.90;;;;;;;14.59;63.60;100657.63;10385520;28;20104;-63
2023/10/08 03:36:21;;;;;;;3.95;1.83;;;;;;;14.60;63.66;100655.84;10389278;28;20084;-63
2023/10/08 03:41:29;;;;;;;5.47;2.35;;;;;;;14.67;63.73;100633.47;10389580;28;20053;-63
2023/10/08 03:46:39;;;;;;;4.18;1.70;;;;;;;14.73;63.62;100642.72;10389379;28;20103;-64
2023/10/08 03:51:42;;;;;;;4.53;2.08;;;;;;;14.73;63.86;100632.19;10388583;28;20053;-64
2023/10/08 03:56:45;;;;;;;5.38;2.08;;;;;;;14.72;63.70;100635.75;10386950;28;20045;-64
2023/10/08 04:01:49;;;;;;;7.45;1.90;;;;;;;14.78;63.64;100616.94;10387215;28;20041;-63
2023/10/08 04:06:55;;;;;;;4.57;2.00;;;;;;;14.80;63.93;100629.06;10388337;28;20069;-63
2023/10/08 04:12:08;;;;;;;4.63;2.00;;;;;;;14.87;63.93;100629.50;10383248;28;20497;-64
2023/10/08 04:17:10;;;;;;;8.68;2.10;;;;;;;14.94;63.68;100625.53;10384040;28;20049;-64
2023/10/08 04:22:15;;;;;;;2.70;1.40;;;;;;;14.97;63.47;100643.75;10384110;28;20037;-65
2023/10/08 04:27:18;;;;;;;4.18;1.90;;;;;;;15.01;63.45;100656.63;10387483;28;20080;-63
2023/10/08 04:32:24;;;;;;;3.83;1.67;;;;;;;15.11;63.22;100657.69;10385463;28;20401;-63
2023/10/08 04:37:32;;;;;;;5.40;2.20;;;;;;;15.07;63.27;100665.88;10386468;28;20193;-64
2023/10/08 04:42:37;;;;;;;3.75;1.80;;;;;;;15.16;63.01;100652.94;10388280;28;20052;-63
2023/10/08 04:47:45;;;;;;;4.63;1.95;;;;;;;15.14;63.07;100631.13;10386714;28;20045;-65
2023/10/08 04:52:58;;;;;;;3.45;1.85;;;;;;;15.13;63.16;100644.41;10385749;28;20041;-63
2023/10/08 04:58:05;;;;;;;3.30;1.55;;;;;;;15.18;62.98;100645.81;10385932;28;20429;-64
2023/10/08 05:03:14;;;;;;;5.65;2.05;;;;;;;15.15;62.83;100639.88;10387658;28;20541;-64
2023/10/08 05:08:24;;;;;;;5.05;2.20;;;;;;;15.18;63.11;100637.03;10385136;28;20159;-64
2023/10/08 05:13:35;;;;;;;6.13;2.55;;;;;;;15.23;62.62;100634.91;10384494;28;20544;-64
2023/10/08 05:19:14;;;;;;;4.30;1.92;;;;;;;15.20;62.80;100624.59;10386437;28;20544;-64
2023/10/08 05:24:22;;;;;;;5.78;2.13;;;;;;;15.28;62.67;100625.78;10384315;28;20041;-64
2023/10/08 05:35:30;;;;;;;6.22;2.08;;;;;;;15.20;62.46;100650.97;10360398;28;20049;-64
2023/10/08 05:40:43;;;;;;;6.47;2.00;;;;;;;15.19;62.64;100655.38;10384976;28;20422;-64
2023/10/08 05:45:36;;;;;;;5.53;2.55;;;;;;;15.28;62.39;100673.22;10379751;28;20052;-63
2023/10/08 05:50:39;;;;;;;4.80;1.92;;;;;;;15.30;62.06;100679.22;10381077;28;20049;-63
2023/10/08 05:55:47;;;;;;;4.75;1.85;;;;;;;15.30;62.25;100689.78;10383646;28;20076;-63
2023/10/08 06:06:07;;;;;;;5.10;2.08;;;;;;;15.35;62.21;100697.34;10381243;28;20034;-64
2023/10/08 06:11:27;;;;;;;4.97;2.10;;;;;;;15.40;62.20;100698.75;10383867;28;20050;-64
2023/10/08 06:16:41;;;;;;;5.43;2.55;;;;;;;15.40;62.39;100682.06;10382522;28;20469;-63
2023/10/08 06:21:45;;;;;;;5.45;2.35;;;;;;;15.47;62.07;100672.78;10380072;28;20048;-64
2023/10/08 06:26:50;;;;;;;4.75;2.03;;;;;;;15.58;61.90;100680.00;10381115;28;20045;-64
2023/10/08 06:31:55;;;;;;;5.30;1.73;;;;;;;15.65;61.84;100695.31;10385230;28;20794;-64
2023/10/08 06:36:59;;;;;;;5.80;2.40;;;;;;;15.80;61.22;100704.78;10379332;28;20132;-64
2023/10/08 06:42:02;;;;;;;4.72;2.72;;;;;;;15.88;60.79;100718.28;10380291;28;20045;-65
2023/10/08 06:47:09;;;;;;;7.88;1.95;;;;;;;15.85;60.87;100730.88;10368399;28;20050;-64
2023/10/08 06:52:13;;;;;;;5.65;2.00;;;;;;;15.90;61.17;100739.28;10390911;28;20033;-65
2023/10/08 06:57:20;;;;;;;7.32;2.42;;;;;;;16.01;60.80;100748.16;10389563;28;20489;-65
2023/10/08 07:02:22;;;;;;;9.80;2.10;;;;;;;16.08;60.53;100756.50;10385053;28;20045;-64
2023/10/08 07:07:28;;;;;;;3.92;1.83;;;;;;;16.18;60.38;100770.75;10384543;28;20049;-65
2023/10/08 07:12:35;;;;;;;4.57;2.10;;;;;;;16.17;60.23;100764.63;10390320;28;20480;-64
2023/10/08 07:17:40;;;;;;;4.70;2.03;;;;;;;16.28;60.08;100758.59;10388033;28;20057;-64
2023/10/08 07:22:43;;;;;;;5.47;2.20;;;;;;;16.48;59.62;100773.06;10415450;28;20587;-64
2023/10/08 07:27:45;;;;;;;4.88;2.42;;;;;;;16.55;60.00;100753.19;10391127;28;20049;-63
2023/10/08 07:32:47;;;;;;;6.97;2.15;;;;;;;16.69;59.56;100724.00;10389914;28;20040;-64
2023/10/08 07:37:50;;;;;;;4.18;2.03;;;;;;;16.82;59.17;100730.06;10390752;28;20508;-64
2023/10/08 07:42:53;;;;;;;6.30;1.92;;;;;;;17.02;58.79;100732.06;10387741;28;20388;-67
2023/10/08 07:47:58;;;;;;;5.88;1.88;;;;;;;17.23;58.50;100743.72;10388927;28;20045;-67
2023/10/08 07:53:00;;;;;;;6.80;2.63;;;;;;;17.14;58.08;100760.25;10391291;28;20088;-68
2023/10/08 07:58:03;;;;;;;3.80;2.03;;;;;;;17.10;58.33;100742.91;10391218;28;20054;-68
2023/10/08 08:03:05;;;;;;;5.85;1.95;;;;;;;17.21;58.37;100747.41;10390482;28;20128;-68
2023/10/08 08:08:08;;;;;;;6.82;3.38;;;;;;;17.24;57.81;100745.38;10390495;28;20134;-68
2023/10/08 08:13:11;;;;;;;7.47;2.47;;;;;;;17.30;57.88;100739.63;10391226;28;20146;-67
2023/10/08 08:18:22;;;;;;;6.15;2.53;;;;;;;17.37;57.82;100738.25;10377905;28;20045;-69
2023/10/08 08:23:24;;;;;;;5.25;2.08;;;;;;;17.53;57.24;100746.72;10383629;28;20119;-67
2023/10/08 08:28:28;;;;;;;7.05;2.28;;;;;;;17.61;57.05;100736.41;10387242;28;20119;-67
2023/10/08 08:33:52;;;;;;;3.88;1.73;;;;;;;17.84;56.78;100743.44;10386644;28;20049;-68
2023/10/08 08:38:54;;;;;;;5.82;2.13;;;;;;;17.94;55.80;100758.59;10389329;28;20426;-68
2023/10/08 08:43:58;;;;;;;8.80;2.22;;;;;;;17.98;56.02;100781.22;10386095;28;20061;-67
2023/10/08 08:49:07;;;;;;;5.47;2.22;;;;;;;18.22;55.31;100784.66;10383173;28;20497;-67
2023/10/08 08:54:09;;;;;;;4.43;2.00;;;;;;;18.35;55.85;100780.06;10385588;28;20045;-67
2023/10/08 08:59:14;;;;;;;4.43;1.85;;;;;;;18.89;54.74;100791.56;10349707;28;20110;-66
2023/10/08 09:04:17;;;;;;;4.63;1.85;;;;;;;19.02;54.11;100786.16;10364580;28;20034;-66
2023/10/08 09:09:22;;;;;;;6.38;2.13;;;;;;;18.96;54.29;100783.97;10373921;28;20207;-66
2023/10/08 09:14:29;;;;;;;4.50;2.13;;;;;;;19.34;53.79;100787.00;10370134;28;20042;-66
2023/10/08 09:19:39;;;;;;;5.78;2.28;;;;;;;19.83;52.13;100805.88;10356368;28;20053;-67
2023/10/08 09:24:42;;;;;;;6.00;1.95;;;;;;;19.91;52.66;100794.63;10363453;28;20045;-66
2023/10/08 09:29:46;;;;;;;4.07;2.13;;;;;;;20.11;52.20;100780.47;10368769;28;20079;-67
2023/10/08 09:34:50;;;;;;;5.78;2.30;;;;;;;20.43;52.29;100773.22;10385940;28;20131;-67
2023/10/08 09:39:52;;;;;;;15.35;2.67;;;;;;;20.36;52.09;100779.19;10375981;28;20462;-67
2023/10/08 09:44:54;;;;;;;4.07;1.83;;;;;;;20.43;52.09;100773.22;10377028;28;20045;-67
2023/10/08 09:50:07;;;;;;;4.97;1.90;;;;;;;20.43;50.73;100791.81;10381277;28;20470;-66
2023/10/08 09:55:12;;;;;;;6.07;1.92;;;;;;;20.49;51.36;100793.09;10373502;28;20060;-67
2023/10/08 10:00:18;;;;;;;3.83;1.90;;;;;;;20.90;50.81;100793.81;10373073;28;20065;-67
2023/10/08 10:05:21;;;;;;;5.85;2.17;;;;;;;21.35;49.58;100785.34;10375653;28;20045;-67
2023/10/08 10:10:28;;;;;;;6.35;2.10;;;;;;;21.55;47.58;100785.22;10378171;28;20217;-67
2023/10/08 10:15:34;;;;;;;5.50;2.67;;;;;;;21.90;47.91;100789.94;10371226;28;20041;-66
2023/10/08 10:20:45;;;;;;;5.68;2.83;;;;;;;21.79;47.23;100790.94;10376568;28;20444;-67
2023/10/08 10:25:48;;;;;;;6.60;2.92;;;;;;;21.43;48.74;100798.81;10370453;28;20077;-66
2023/10/08 10:30:53;;;;;;;7.15;2.42;;;;;;;21.44;48.23;100811.09;10378139;28;20052;-66
2023/10/08 10:35:55;;;;;;;5.57;2.20;;;;;;;21.20;48.75;100811.50;10371564;28;20363;-66
2023/10/08 10:40:57;;;;;;;10.15;2.28;;;;;;;21.20;48.56;100816.81;10376039;28;20064;-66
2023/10/08 10:46:24;;;;;;;7.28;2.63;;;;;;;21.41;48.29;100822.06;10368869;28;20549;-66
2023/10/08 10:51:22;;;;;;;6.82;2.65;;;;;;;22.12;48.02;100836.75;10370656;28;20293;-66
2023/10/08 10:56:30;;;;;;;8.45;2.20;;;;;;;22.27;47.66;100841.47;10369718;28;20401;-66
2023/10/08 11:01:46;;;;;;;15.93;2.80;;;;;;;22.30;47.42;100846.50;10378805;28;20053;-66
2023/10/08 11:06:56;;;;;;;6.95;2.53;;;;;;;22.33;47.16;100840.06;10372269;28;20045;-66
2023/10/08 11:12:01;;;;;;;;;;;;;;;21.84;46.57;100823.28;10376712;28;20056;-66
2023/10/08 11:17:17;;;;;;;6.05;2.67;;;;;;;21.73;47.33;100820.78;10385371;28;19925;-67
2023/10/08 11:22:22;;;;;;;5.60;2.20;;;;;;;21.61;48.82;100823.72;10376550;28;20401;-67
2023/10/08 11:27:35;;;;;;;6.22;2.55;;;;;;;21.44;48.48;100821.75;10371722;28;20049;-67
2023/10/08 11:32:38;;;;;;;6.03;2.28;;;;;;;21.23;48.93;100821.03;10382139;28;20504;-67
2023/10/08 11:37:50;;;;;;;7.35;2.13;;;;;;;21.21;48.94;100815.00;10379857;28;20060;-67
2023/10/08 11:43:03;;;;;;;7.88;2.80;;;;;;;21.32;49.34;100810.41;10376514;28;20033;-67
2023/10/08 11:48:11;;;;;;;8.52;2.22;;;;;;;21.39;49.84;100811.56;10381758;28;20072;-67
2023/10/08 11:53:14;;;;;;;7.63;2.23;;;;;;;21.33;49.27;100796.16;10381489;28;20714;-67
2023/10/08 11:58:20;;;;;;;6.65;2.63;;;;;;;21.37;49.25;100786.06;10362808;28;20052;-67
2023/10/08 12:03:26;;;;;;;12.75;3.95;;;;;;;21.39;49.40;100790.25;10382467;28;20061;-67
2023/10/08 12:08:29;;;;;;;6.20;2.40;;;;;;;21.33;49.30;100779.34;10379202;28;20057;-67
2023/10/08 12:13:31;;;;;;;6.25;2.50;;;;;;;21.00;50.02;100784.03;10382328;28;20045;-66
2023/10/08 12:18:39;;;;;;;7.53;2.22;;;;;;;21.40;49.87;100783.94;10379635;28;20072;-66
2023/10/08 12:23:43;;;;;;;11.27;2.60;;;;;;;21.90;48.77;100779.28;10380621;28;20054;-66
2023/10/08 12:28:48;;;;;;;6.85;2.80;;;;;;;22.34;48.44;100767.94;10378336;28;20429;-67
2023/10/08 12:33:53;;;;;;;6.15;2.72;;;;;;;22.55;48.15;100771.22;10374450;28;20049;-66
2023/10/08 12:38:58;;;;;;;7.82;2.45;;;;;;;22.70;47.87;100760.88;10382339;28;20045;-67
2023/10/08 12:44:03;;;;;;;8.25;3.00;;;;;;;22.64;47.56;100775.66;10380519;28;20126;-66
2023/10/08 12:49:05;;;;;;;8.38;2.58;;;;;;;22.37;47.80;100767.63;10382167;28;20038;-66
2023/10/08 12:54:08;;;;;;;5.75;2.30;;;;;;;22.46;47.64;100761.44;10376416;28;20045;-67
2023/10/08 12:59:20;;;;;;;4.00;2.08;;;;;;;22.33;48.11;100765.44;10379039;28;20045;-65
2023/10/08 13:04:27;;;;;;;8.35;2.97;;;;;;;22.68;47.93;100761.03;10376888;28;20073;-67
2023/10/08 13:09:36;;;;;;;7.15;3.13;;;;;;;22.64;47.69;100758.81;10381564;28;20639;-67
2023/10/08 13:14:39;;;;;;;6.07;2.37;;;;;;;22.49;48.18;100753.16;10373746;28;20053;-67
2023/10/08 13:19:41;;;;;;;7.90;2.50;;;;;;;22.63;48.26;100750.00;10379256;28;20520;-67
2023/10/08 13:24:43;;;;;;;5.80;2.30;;;;;;;22.64;47.93;100749.00;10354188;28;20587;-68
2023/10/08 13:29:45;;;;;;;6.20;2.60;;;;;;;22.60;48.38;100754.75;10374149;28;20053;-68
2023/10/08 13:34:48;;;;;;;5.55;2.25;;;;;;;22.55;48.60;100744.56;10369369;28;20512;-68
2023/10/08 13:39:53;;;;;;;5.20;1.92;;;;;;;22.43;48.75;100729.72;10377381;28;20068;-68
2023/10/08 13:44:59;;;;;;;6.38;2.60;;;;;;;22.34;48.87;100735.13;10374667;28;20045;-67
2023/10/08 13:50:10;;;;;;;7.88;2.47;;;;;;;22.43;48.88;100735.06;10372698;28;20195;-67
2023/10/08 13:55:13;;;;;;;6.85;2.10;;;;;;;22.35;49.08;100734.97;10363551;28;20489;-67
2023/10/08 14:00:16;;;;;;;6.05;1.90;;;;;;;22.22;49.24;100741.63;10371537;28;20490;-67
2023/10/08 14:05:23;;;;;;;6.88;2.50;;;;;;;22.20;49.43;100707.13;10372920;28;20049;-67
2023/10/08 14:10:29;;;;;;;6.00;2.33;;;;;;;22.20;49.55;100707.13;10379749;28;20061;-67
2023/10/08 14:15:32;;;;;;;5.75;2.33;;;;;;;22.22;49.67;100721.16;10371358;28;20049;-67
2023/10/08 14:20:40;;;;;;;6.68;2.50;;;;;;;22.13;49.78;100716.69;10378022;28;20045;-67
2023/10/08 14:25:44;;;;;;;7.18;2.08;;;;;;;22.07;49.72;100719.13;10373771;28;20038;-67
2023/10/08 14:30:52;;;;;;;4.82;2.38;;;;;;;22.13;49.35;100705.22;10379591;28;20414;-68
2023/10/08 14:46:36;;;;;;;9.80;2.88;;;;;;;22.05;50.03;100691.78;10369034;28;20201;-67
2023/10/08 14:51:40;;;;;;;7.05;2.70;;;;;;;22.06;49.70;100680.97;10380279;28;20398;-67
2023/10/08 14:56:42;;;;;;;7.20;2.38;;;;;;;21.94;50.11;100670.63;10370497;28;20124;-66
2023/10/08 15:01:46;;;;;;;5.90;2.47;;;;;;;21.79;50.64;100675.56;10375250;28;20050;-66
2023/10/08 15:06:49;;;;;;;6.53;2.85;;;;;;;21.79;51.40;100631.16;10378137;28;20469;-67
2023/10/08 15:11:52;;;;;;;6.30;2.22;;;;;;;21.32;52.05;100681.84;10383310;28;20603;-67
2023/10/08 15:16:56;;;;;;;5.90;2.65;;;;;;;21.21;52.99;100647.41;10379451;28;20405;-67
2023/10/08 15:21:58;;;;;;;7.63;2.63;;;;;;;21.08;52.79;100677.78;10366625;28;20465;-67
2023/10/08 15:27:00;;;;;;;4.45;2.22;;;;;;;20.94;53.50;100667.56;10374359;28;20077;-66
2023/10/08 15:32:02;;;;;;;6.97;2.47;;;;;;;21.03;53.38;100660.56;10385511;28;20045;-66
2023/10/08 15:37:04;;;;;;;11.98;2.90;;;;;;;21.04;53.63;100667.56;10375333;28;20052;-66
2023/10/08 15:42:06;;;;;;;4.60;2.30;;;;;;;20.91;53.56;100673.16;10385033;28;20061;-66
2023/10/08 15:47:08;;;;;;;8.00;2.65;;;;;;;20.71;54.48;100673.28;10376916;28;20172;-66
2023/10/08 15:52:10;;;;;;;7.03;2.90;;;;;;;20.52;55.29;100671.41;10384554;28;20481;-67
2023/10/08 15:57:14;;;;;;;5.88;2.22;;;;;;;20.32;55.85;100682.97;10375376;28;20045;-65
2023/10/08 16:02:18;;;;;;;6.35;2.30;;;;;;;19.97;55.45;100691.38;10361730;28;20264;-66
2023/10/08 16:07:21;;;;;;;6.20;2.90;;;;;;;19.71;56.07;100695.41;10377070;28;20049;-66
2023/10/08 16:12:24;;;;;;;10.13;2.28;;;;;;;19.44;56.23;100700.38;10382821;28;20049;-66
2023/10/08 16:17:30;;;;;;;5.10;2.13;;;;;;;19.28;56.58;100695.53;10378584;28;20426;-66
2023/10/08 16:22:33;;;;;;;6.43;2.28;;;;;;;19.16;56.67;100693.06;10385967;28;20048;-66
2023/10/08 16:27:35;;;;;;;8.57;2.35;;;;;;;19.05;56.48;100685.19;10377885;28;20049;-66
2023/10/08 16:32:37;;;;;;;7.05;1.83;;;;;;;19.04;56.67;100684.31;10380265;28;20461;-67
2023/10/08 16:37:40;;;;;;;7.47;1.88;;;;;;;18.98;56.41;100683.94;10370828;28;20041;-66
2023/10/08 16:42:42;;;;;;;10.95;2.25;;;;;;;18.75;56.94;100685.03;10383158;28;20041;-67
2023/10/08 16:47:47;;;;;;;6.20;1.63;;;;;;;18.58;56.82;100687.22;10381412;28;20061;-66
2023/10/08 16:52:49;;;;;;;8.10;2.22;;;;;;;18.40;57.67;100679.94;10381994;28;20029;-67
2023/10/08 16:57:51;;;;;;;7.50;2.30;;;;;;;18.21;57.91;100687.66;10369797;28;20160;-67
2023/10/08 17:02:54;;;;;;;3.78;1.80;;;;;;;17.99;57.96;100680.53;10385473;28;20241;-67
2023/10/08 17:07:56;;;;;;;5.60;1.80;;;;;;;17.71;58.23;100692.41;10383736;28;20403;-66
2023/10/08 17:12:58;;;;;;;6.82;1.75;;;;;;;17.46;59.01;100686.50;10383476;28;20091;-67
2023/10/08 17:18:01;;;;;;;4.10;1.70;;;;;;;17.28;59.05;100690.50;10384173;28;20735;-66
2023/10/08 17:23:06;;;;;;;6.00;2.47;;;;;;;17.02;59.76;100695.06;10381297;28;20136;-66
2023/10/08 17:28:09;;;;;;;5.75;2.03;;;;;;;16.85;59.80;100688.41;10381459;28;20103;-66
2023/10/08 17:33:11;;;;;;;4.93;1.60;;;;;;;16.63;60.38;100687.47;10377836;28;20071;-66
2023/10/08 17:38:16;;;;;;;3.90;1.60;;;;;;;16.46;60.71;100703.66;10378239;28;20059;-66
2023/10/08 17:43:20;;;;;;;4.22;1.80;;;;;;;16.34;60.48;100696.59;10375270;28;20049;-63
2023/10/08 17:48:26;;;;;;;4.82;2.20;;;;;;;16.27;60.61;100703.25;10382022;28;20061;-63
2023/10/08 17:53:28;;;;;;;4.53;1.67;;;;;;;16.19;60.86;100703.81;10382708;28;20049;-63
2023/10/08 17:58:36;;;;;;;4.65;2.22;;;;;;;16.28;61.01;100694.41;10384674;28;20053;-63
2023/10/08 18:03:38;;;;;;;5.20;2.17;;;;;;;16.34;60.66;100700.09;10372744;28;20059;-64
2023/10/08 18:08:49;;;;;;;5.22;1.90;;;;;;;16.34;61.06;100689.53;10384909;28;20402;-64
2023/10/08 18:13:52;;;;;;;5.40;1.85;;;;;;;16.41;61.06;100674.06;10384087;28;20124;-64
2023/10/08 18:18:53;;;;;;;2.55;1.55;;;;;;;16.39;60.98;100678.63;10376452;28;20049;-63
2023/10/08 18:23:56;;;;;;;3.40;1.45;;;;;;;16.30;60.48;100680.16;10365864;28;20037;-63
2023/10/08 18:28:58;;;;;;;7.72;1.75;;;;;;;16.14;61.08;100675.09;10382745;28;20405;-63
2023/10/08 18:34:00;;;;;;;4.22;1.70;;;;;;;16.08;60.96;100680.00;10378510;28;20488;-63
2023/10/08 18:39:12;;;;;;;3.03;1.50;;;;;;;15.99;61.27;100676.19;10377915;28;20053;-63
2023/10/08 18:44:16;;;;;;;4.38;2.15;;;;;;;15.76;61.18;100679.59;10387115;28;20918;-62
2023/10/08 18:49:18;;;;;;;7.70;2.20;;;;;;;15.60;61.78;100683.38;10380983;28;20049;-63
2023/10/08 18:54:25;;;;;;;3.22;1.63;;;;;;;15.54;62.02;100678.53;10384157;28;20454;-63
2023/10/08 18:59:27;;;;;;;5.88;1.88;;;;;;;15.42;61.77;100674.91;10382943;28;20980;-63
2023/10/08 19:04:29;;;;;;;2.13;1.45;;;;;;;15.34;61.85;100669.31;10391221;28;20049;-63
2023/10/08 19:09:31;;;;;;;3.42;1.60;;;;;;;15.24;61.69;100661.19;10387134;28;20057;-62
2023/10/08 19:14:34;;;;;;;3.55;1.40;;;;;;;15.15;61.97;100658.31;10389711;28;20053;-62
2023/10/08 19:19:36;;;;;;;2.53;1.42;;;;;;;15.06;61.74;100666.84;10389260;28;20068;-63
2023/10/08 19:24:38;;;;;;;3.22;1.50;;;;;;;14.87;61.96;100663.72;10387235;28;20041;-63
2023/10/08 19:29:40;;;;;;;3.30;1.42;;;;;;;14.84;62.35;100659.50;10388388;28;20305;-63
2023/10/08 19:34:44;;;;;;;4.60;1.70;;;;;;;15.00;62.15;100652.28;10387203;28;20554;-63
2023/10/08 19:39:46;;;;;;;2.22;1.38;;;;;;;14.97;62.16;100651.63;10376223;28;20044;-63
2023/10/08 19:44:50;;;;;;;2.55;1.55;;;;;;;14.89;61.95;100646.91;10375726;28;20498;-63
2023/10/08 19:49:53;;;;;;;3.42;1.55;;;;;;;14.72;62.09;100649.78;10380790;28;20485;-62
2023/10/08 19:54:55;;;;;;;5.32;2.03;;;;;;;14.60;62.44;100653.22;10384355;28;20060;-62
2023/10/08 19:59:57;;;;;;;4.07;1.92;;;;;;;14.59;62.76;100649.72;10377406;28;20057;-62
2023/10/08 20:04:59;;;;;;;4.30;1.73;;;;;;;14.43;62.82;100643.72;10382609;28;20069;-63
2023/10/08 20:10:01;;;;;;;5.93;1.88;;;;;;;14.26;63.34;100651.03;10389704;28;20738;-63
2023/10/08 20:15:11;;;;;;;2.95;1.58;;;;;;;14.31;63.54;100643.66;10382792;28;20405;-62
2023/10/08 20:20:15;;;;;;;3.58;2.17;;;;;;;14.32;63.44;100650.63;10387383;28;20057;-62
2023/10/08 20:25:33;;;;;;;3.70;1.80;;;;;;;14.33;63.56;100649.72;10384903;28;20049;-62
2023/10/08 20:30:36;;;;;;;3.53;1.63;;;;;;;14.25;63.80;100651.94;10383562;28;20050;-62
2023/10/08 20:35:39;;;;;;;3.38;1.55;;;;;;;14.24;63.80;100637.97;10386654;28;20050;-62
2023/10/08 20:40:43;;;;;;;5.13;1.60;;;;;;;14.36;63.63;100641.59;10386088;28;20040;-62
2023/10/08 20:45:45;;;;;;;4.35;1.77;;;;;;;14.34;63.60;100646.97;10387173;28;20057;-62
2023/10/08 20:50:47;;;;;;;2.95;1.52;;;;;;;14.45;63.70;100639.22;10386138;28;20061;-62
2023/10/08 20:55:51;;;;;;;3.60;1.70;;;;;;;14.49;63.18;100642.56;10384157;28;20505;-61
2023/10/08 21:00:58;;;;;;;2.55;1.45;;;;;;;14.44;63.59;100637.53;10380934;28;20060;-62
2023/10/08 21:06:01;;;;;;;4.35;1.90;;;;;;;14.35;63.58;100627.59;10385466;28;20496;-62
2023/10/08 21:11:03;;;;;;;6.70;2.50;;;;;;;14.27;63.59;100621.97;10383934;28;20539;-62
2023/10/08 21:16:12;;;;;;;3.78;1.65;;;;;;;14.19;63.82;100629.53;10386802;28;20038;-62
2023/10/08 21:21:18;;;;;;;2.65;1.45;;;;;;;14.11;63.84;100617.78;10383831;28;20911;-63
2023/10/08 21:26:21;;;;;;;3.53;1.67;;;;;;;14.04;63.89;100601.56;10383147;28;20482;-62
2023/10/08 21:31:23;;;;;;;3.65;2.13;;;;;;;13.98;63.99;100594.06;10384676;28;20045;-62
2023/10/08 21:36:25;;;;;;;2.83;1.42;;;;;;;13.90;64.09;100593.72;10384525;28;20041;-62
2023/10/08 21:41:28;;;;;;;3.10;1.45;;;;;;;13.84;64.18;100582.72;10385086;28;20045;-63
2023/10/08 21:46:30;;;;;;;4.80;1.40;;;;;;;13.81;64.22;100583.75;10350719;28;20132;-63
2023/10/08 21:51:32;;;;;;;3.88;1.60;;;;;;;13.56;64.20;100586.22;10384421;28;20341;-62
2023/10/08 21:56:34;;;;;;;3.58;1.33;;;;;;;13.39;64.56;100578.50;10384771;28;20573;-62
2023/10/08 22:01:38;;;;;;;2.92;1.65;;;;;;;13.30;64.59;100586.94;10384850;28;20064;-63
2023/10/08 22:06:40;;;;;;;3.30;1.73;;;;;;;13.27;64.52;100580.06;10384531;28;20103;-62
2023/10/08 22:11:42;;;;;;;4.05;1.65;;;;;;;13.33;64.74;100584.97;10385660;28;20053;-63
2023/10/08 22:16:46;;;;;;;3.20;1.80;;;;;;;13.41;64.32;100580.06;10381220;28;20223;-62
2023/10/08 22:21:50;;;;;;;3.08;1.23;;;;;;;13.44;64.45;100573.81;10384345;28;20041;-65
2023/10/08 22:26:54;;;;;;;11.38;2.13;;;;;;;13.41;64.46;100579.25;10382291;28;20124;-63
2023/10/08 22:31:59;;;;;;;3.58;1.50;;;;;;;13.33;64.48;100571.00;10384457;28;20137;-63
2023/10/08 22:37:07;;;;;;;3.85;1.63;;;;;;;13.34;64.56;100560.38;10381751;28;20042;-63
2023/10/08 22:42:09;;;;;;;2.92;1.60;;;;;;;13.38;64.46;100559.25;10382799;28;20335;-63
2023/10/08 22:47:11;;;;;;;3.08;1.40;;;;;;;13.45;64.40;100544.84;10381422;28;20147;-63
2023/10/08 22:52:16;;;;;;;2.85;1.60;;;;;;;13.45;64.33;100546.63;10383799;28;20046;-62
2023/10/08 22:57:23;;;;;;;3.78;1.42;;;;;;;13.39;64.33;100542.53;10381852;28;20065;-62
2023/10/08 23:02:27;;;;;;;3.40;1.58;;;;;;;13.25;64.94;100539.09;10380380;28;20111;-63
2023/10/08 23:07:29;;;;;;;4.20;1.33;;;;;;;13.36;64.64;100540.13;10378227;28;20048;-63
2023/10/08 23:12:32;;;;;;;2.90;1.70;;;;;;;13.43;64.37;100540.63;10382661;28;20560;-63
2023/10/08 23:17:34;;;;;;;3.05;1.45;;;;;;;13.43;64.53;100536.19;10381402;28;20064;-63
2023/10/08 23:22:36;;;;;;;2.85;1.30;;;;;;;13.43;64.50;100530.13;10382587;28;20513;-62
2023/10/08 23:27:38;;;;;;;3.05;1.60;;;;;;;13.45;64.32;100510.69;10384467;28;20052;-62
2023/10/08 23:32:42;;;;;;;6.03;1.75;;;;;;;13.41;64.04;100509.13;10390225;28;20078;-62
2023/10/08 23:38:04;;;;;;;3.67;1.45;;;;;;;13.37;64.27;100498.94;10389490;28;20048;-62
2023/10/08 23:43:09;;;;;;;3.97;1.25;;;;;;;13.34;64.35;100502.59;10388575;28;20548;-64
2023/10/08 23:48:20;;;;;;;2.20;1.27;;;;;;;13.43;64.65;100493.34;10390681;28;20417;-62